• Join FlightAware (Why Join?)
  • Login
  • US Flag 
08:36PM EDT


 

Airport Tracker/Info


-or-


 

Live Flight TrackerFlight Track Log ✈ JZA8240 ✈ 19-Aug-2013 ✈ CYVR - CYXT

Flight Track Log - Related Links

Times and Time Zones

All times are in EDT time to prevent confusion due to time zone crossing. See the JZA8240 flight status page for this flight to view local times or setup timezone preferences in your user account.

Time Position Orientation Groundspeed Altitude Reporting Facility
EDT Latitude Longitude Course Direction KTS MPH feet Rate Location/Type
11:32AM 49.1667 -123.1667 331° Northwest 120 138 1,100  Level Vancouver Center
11:33AM 49.1667 -123.0833 90° East 140 161 2,500 1,440 Climbing Vancouver Center
11:34AM 49.1500 -123.0333 117° Southeast 150 173 4,000 1,500 Climbing Vancouver Center
11:35AM 49.1833 -122.9833 44° Northeast 160 184 5,600 1,500 Climbing Vancouver Center
11:36AM 49.1918 -123.2292 331° Northwest  Level FlightAware Approximate
11:36AM 49.2167 -122.9500 33° Northeast 150 173 7,000  Level Vancouver Center
11:37AM 49.2527 -123.2799 331° Northwest  Level FlightAware Approximate
11:37AM 49.2667 -122.9500 360° North 160 184 8,500  Level Vancouver Center
11:38AM 49.3135 -123.3307 331° Northwest  Level FlightAware Approximate
11:38AM 49.3167 -122.9500 360° North 160 184 9,800  Level Vancouver Center
11:39AM 49.3500 -122.9500 360° North 160 184 11,100 1,200 Climbing Vancouver Center
11:40AM 49.4000 -122.9833 337° Northwest 170 196 12,300 1,200 Climbing Vancouver Center
11:41AM 49.4333 -123.0000 342° North 150 173 13,500 1,140 Climbing Vancouver Center
11:42AM 49.4667 -123.0500 316° Northwest 150 173 14,600 1,020 Climbing Vancouver Center
11:43AM 49.5000 -123.0833 327° Northwest 150 173 15,600 1,020 Climbing Vancouver Center
11:44AM 49.5333 -123.1333 316° Northwest 150 173 16,700 840 Climbing Vancouver Center
11:45AM 49.5667 -123.1500 342° North 160 184 17,300 780 Climbing Vancouver Center
11:46AM 49.6167 -123.2000 327° Northwest 170 196 18,300 780 Climbing Vancouver Center
11:47AM 49.6500 -123.2333 327° Northwest 160 184 18,900 480 Climbing Vancouver Center
11:48AM 49.6833 -123.2833 316° Northwest 170 196 19,300 540 Climbing Vancouver Center
11:49AM 49.7167 -123.3167 327° Northwest 170 196 20,000 300 Climbing Vancouver Center
11:50AM 49.7667 -123.3667 327° Northwest 170 196 20,000  Level Vancouver Center
11:51AM 49.8000 -123.4167 316° Northwest 190 219 20,000  Level Vancouver Center
11:52AM 49.8500 -123.4667 327° Northwest 200 230 20,000  Level Vancouver Center
11:53AM 49.9000 -123.5167 327° Northwest 210 242 20,000  Level Vancouver Center
11:54AM 49.9500 -123.5667 327° Northwest 220 253 20,000  Level Vancouver Center
11:55AM 50.0000 -123.6167 327° Northwest 220 253 20,000  Level Vancouver Center
11:56AM 50.0500 -123.6667 327° Northwest 220 253 20,000  Level Vancouver Center
11:57AM 50.1000 -123.7167 327° Northwest 220 253 20,100 480 Climbing Vancouver Center
11:58AM 50.1500 -123.7667 327° Northwest 190 219 21,000 600 Climbing Vancouver Center
11:59AM 50.1833 -123.8167 316° Northwest 180 207 21,300 300 Climbing Vancouver Center
12:00PM 50.2167 -123.8500 327° Northwest 170 196 21,700 300 Climbing Vancouver Center
12:01PM 50.2500 -123.9000 316° Northwest 160 184 22,000 120 Climbing Vancouver Center
12:02PM 50.3000 -123.9500 327° Northwest 170 196 22,000  Level Vancouver Center
12:03PM 50.3333 -123.9833 327° Northwest 190 219 22,000  Level Vancouver Center
12:04PM 50.3833 -124.0333 327° Northwest 200 230 22,000  Level Vancouver Center
12:05PM 50.4333 -124.0833 328° Northwest 210 242 22,000  Level Vancouver Center
12:06PM 50.4833 -124.1333 328° Northwest 210 242 22,000  Level Vancouver Center
12:07PM 50.5333 -124.2000 320° Northwest 210 242 22,000  Level Vancouver Center
12:08PM 50.5833 -124.2500 328° Northwest 210 242 22,000  Level Vancouver Center
12:09PM 50.6333 -124.3000 328° Northwest 210 242 22,000  Level Vancouver Center
12:10PM 50.6833 -124.3500 328° Northwest 210 242 22,000  Level Vancouver Center
12:11PM 50.7333 -124.4333 313° West 220 253 22,000  Level Vancouver Center
12:12PM 50.7833 -124.4833 328° Northwest 220 253 22,000  Level Vancouver Center
12:13PM 50.8333 -124.5333 328° Northwest 230 265 22,000  Level Vancouver Center
12:14PM 50.8833 -124.6000 320° Northwest 230 265 22,000  Level Vancouver Center
12:15PM 50.9333 -124.6500 328° Northwest 220 253 22,000  Level Vancouver Center
12:16PM 50.9833 -124.7000 328° Northwest 220 253 22,000  Level Vancouver Center
12:17PM 51.0333 -124.7500 328° Northwest 210 242 22,000  Level Vancouver Center
12:18PM 51.0833 -124.8167 320° Northwest 220 253 22,000  Level Vancouver Center
12:19PM 51.1167 -124.8667 317° Northwest 220 253 22,000  Level Vancouver Center
12:20PM 51.1833 -124.9167 335° Northwest 220 253 22,000  Level Vancouver Center
12:21PM 51.2333 -124.9667 328° Northwest 220 253 22,000  Level Vancouver Center
12:22PM 51.2833 -125.0333 320° Northwest 220 253 22,000  Level Vancouver Center
12:23PM 51.3333 -125.1000 320° Northwest 220 253 22,000  Level Vancouver Center
12:24PM 51.3667 -125.1333 328° Northwest 210 242 22,000  Level Vancouver Center
12:25PM 51.4167 -125.2167 314° West 210 242 22,000  Level Vancouver Center
12:26PM 51.4667 -125.2667 328° Northwest 220 253 22,000  Level Vancouver Center
12:27PM 51.5167 -125.3333 320° Northwest 220 253 22,000  Level Vancouver Center
12:28PM 51.5667 -125.3833 328° Northwest 220 253 22,000  Level Vancouver Center
12:29PM 51.6333 -125.4333 335° Northwest 220 253 22,000  Level Vancouver Center
12:30PM 51.6667 -125.5000 309° West 220 253 22,000  Level Vancouver Center
12:31PM 51.7333 -125.5500 335° Northwest 220 253 22,000  Level Vancouver Center
12:32PM 51.7833 -125.6000 328° Northwest 230 265 22,000  Level Vancouver Center
12:33PM 51.8333 -125.6667 321° Northwest 230 265 22,000  Level Vancouver Center
12:34PM 51.8833 -125.7500 314° West 230 265 22,000  Level Vancouver Center
12:35PM 51.9333 -125.8000 328° Northwest 230 265 22,000  Level Vancouver Center
12:36PM 51.9833 -125.8500 328° Northwest 230 265 22,000  Level Vancouver Center
12:37PM 52.0167 -125.9167 309° West 230 265 22,000  Level Vancouver Center
12:38PM 52.0833 -126.0000 322° Northwest 230 265 22,000  Level Vancouver Center
12:39PM 52.1333 -126.0500 328° Northwest 220 253 22,000  Level Vancouver Center
12:40PM 52.1833 -126.1167 321° Northwest 220 253 22,000  Level Vancouver Center
12:41PM 52.2333 -126.1667 329° Northwest 220 253 22,000  Level Vancouver Center
12:42PM 52.2833 -126.2333 321° Northwest 220 253 22,000  Level Vancouver Center
12:43PM 52.3333 -126.2833 329° Northwest 220 253 22,000  Level Vancouver Center
12:44PM 52.3833 -126.3333 329° Northwest 220 253 22,000  Level Vancouver Center
12:45PM 52.4333 -126.4000 321° Northwest 220 253 22,000  Level Vancouver Center
12:46PM 52.4833 -126.4500 329° Northwest 220 253 22,000  Level Vancouver Center
12:47PM 52.5333 -126.5167 321° Northwest 220 253 22,000  Level Vancouver Center
12:48PM 52.5833 -126.5667 329° Northwest 220 253 22,000  Level Vancouver Center
12:49PM 52.6333 -126.6500 315° West 230 265 22,000  Level Vancouver Center
12:50PM 52.6833 -126.7167 321° Northwest 230 265 22,000  Level Vancouver Center
12:51PM 52.7167 -126.7667 318° Northwest 230 265 22,000  Level Vancouver Center
12:52PM 52.7667 -126.8333 321° Northwest 230 265 22,000  Level Vancouver Center
12:53PM 52.8333 -126.9167 323° Northwest 240 276 22,000  Level Vancouver Center
12:54PM 52.8833 -126.9833 321° Northwest 250 288 22,000  Level Vancouver Center
12:55PM 52.9333 -127.0333 329° Northwest 250 288 22,000  Level Vancouver Center
12:56PM 53.0000 -127.1333 318° Northwest 260 299 22,000  Level Vancouver Center
12:57PM 53.0667 -127.1833 336° Northwest 270 311 22,000  Level Vancouver Center
12:58PM 53.1333 -127.2833 318° Northwest 270 311 22,000  Level Vancouver Center
12:59PM 53.1833 -127.3333 329° Northwest 260 299 22,000  Level Vancouver Center
01:00PM 53.2333 -127.4167 315° West 260 299 22,000  Level Vancouver Center
01:01PM 53.2833 -127.4833 321° Northwest 270 311 22,000  Level Vancouver Center
01:02PM 53.3500 -127.5667 323° Northwest 260 299 22,000  Level Vancouver Center
01:03PM 53.4000 -127.6333 322° Northwest 260 299 22,000 -60 Level Vancouver Center
01:04PM 53.4667 -127.7167 323° Northwest 260 299 21,900 -900 Descending Vancouver Center
01:05PM 53.5333 -127.8167 318° Northwest 280 322 20,300 -1,620 Descending Vancouver Center
01:06PM 53.6000 -127.8833 329° Northwest 290 334 18,700 -1,500 Descending Vancouver Center
01:07PM 53.6333 -127.9667 304° West 270 311 17,300 -1,500 Descending Vancouver Center
01:08PM 53.7000 -128.0500 324° Northwest 280 322 15,800 -1,560 Descending Vancouver Center
01:09PM 53.7667 -128.1167 329° Northwest 280 322 14,200 -1,560 Descending Vancouver Center
01:10PM 53.8333 -128.2167 319° Northwest 270 311 12,700 -1,440 Descending Vancouver Center
01:11PM 53.9000 -128.2667 336° Northwest 260 299 11,400 -960 Descending Vancouver Center
01:12PM 53.9500 -128.3667 310° West 260 299 10,800 -600 Descending Vancouver Center
01:13PM 54.0000 -128.4333 322° Northwest 260 299 10,200 -360 Descending Vancouver Center
01:14PM 54.0500 -128.5167 316° Northwest 260 299 10,100 -120 Descending Vancouver Center
01:17PM 54.1198 -128.5268 353° North  Level Estimated
01:24PM 54.4667 -128.5667 352° North  Level FlightAware Approximate